Sibi Weather



Sibi's Current Weather

Temprature 31.95o clear sky

clear sky

Rain: 0 %

Min Temprature31.95o
Max Temprature31.95o
Humidity31
Wind Speed0.8 m/h
Sun Rise06:00:48
Sun Set19:02:08
Current Time: 23-Aug-2019 05:39:28
Lat/Lon: 29.55, 67.88




Sibi's Geo Location



Sibi's Weather Forecast

Time Overall Temp Min Temp Max Temp Humidity Wind Speed Rain
23-Aug-2019 (Fri)
08:00:00 clear sky 31.840 31.837 31.840 33 1.63 m/h 0 %
11:00:00 clear sky 34.550 34.550 34.550 30 1.82 m/h 0 %
14:00:00 clear sky 38.230 38.230 38.231 21 2.14 m/h 0 %
17:00:00 clear sky 40.110 40.110 40.111 14 3.11 m/h 0 %
20:00:00 clear sky 37.950 37.950 37.950 16 2.76 m/h 0 %
23:00:00 clear sky 35.542 35.542 35.542 21 0.78 m/h 0 %
24-Aug-2019 (Sat)
02:00:00 clear sky 33.231 33.231 33.231 25 0.53 m/h 0 %
05:00:00 clear sky 30.955 30.955 30.955 34 1.86 m/h 0 %
08:00:00 clear sky 31.137 31.137 31.137 40 1.03 m/h 0 %
11:00:00 clear sky 34.469 34.469 34.469 32 2 m/h 0 %
14:00:00 clear sky 38.569 38.569 38.569 20 2 m/h 0 %
17:00:00 clear sky 40.223 40.223 40.223 14 3.09 m/h 0 %
20:00:00 clear sky 37.950 37.950 37.950 18 2.75 m/h 0 %
23:00:00 clear sky 35.569 35.569 35.569 22 0.87 m/h 0 %
25-Aug-2019 (Sun)
02:00:00 clear sky 33.531 33.531 33.531 27 1.49 m/h 0 %
05:00:00 clear sky 31.157 31.157 31.157 35 1.78 m/h 0 %
08:00:00 clear sky 31.114 31.114 31.114 44 1.73 m/h 0 %
11:00:00 clear sky 34.216 34.216 34.216 36 1.91 m/h 0 %
14:00:00 clear sky 37.850 37.850 37.850 26 2.47 m/h 0 %
17:00:00 clear sky 39.250 39.250 39.250 20 3.23 m/h 0 %
20:00:00 clear sky 37.781 37.781 37.781 21 2.27 m/h 0 %
23:00:00 clear sky 35.511 35.511 35.511 25 2.41 m/h 0 %
26-Aug-2019 (Mon)
02:00:00 clear sky 33.565 33.565 33.565 30 0.52 m/h 0 %
05:00:00 clear sky 31.450 31.450 31.450 36 1.18 m/h 0 %
08:00:00 clear sky 30.967 30.967 30.967 48 1.7 m/h 0 %
11:00:00 clear sky 35.372 35.372 35.372 33 1.78 m/h 0 %
14:00:00 clear sky 39.384 39.384 39.384 20 2.26 m/h 0 %
17:00:00 clear sky 41.120 41.120 41.120 13 3.66 m/h 0 %
20:00:00 clear sky 38.472 38.472 38.472 18 2.59 m/h 0 %
23:00:00 clear sky 36.114 36.114 36.114 22 0.35 m/h 0 %
27-Aug-2019 (Tue)
02:00:00 few clouds 34.116 34.116 34.116 25 0.97 m/h 0 %
05:00:00 few clouds 32.750 32.750 32.750 25 1.34 m/h 0 %
08:00:00 scattered clouds 35.735 35.735 35.735 19 0.63 m/h 0 %
11:00:00 scattered clouds 39.736 39.736 39.736 15 2.18 m/h 0 %
14:00:00 scattered clouds 42.436 42.436 42.436 9 2.62 m/h 0 %
17:00:00 broken clouds 42.565 42.565 42.565 8 2.18 m/h 0 %
20:00:00 overcast clouds 39.750 39.750 39.750 11 2.76 m/h 0 %
23:00:00 broken clouds 36.450 36.450 36.450 23 3.74 m/h 0 %
28-Aug-2019 (Wed)
02:00:00 few clouds 34.257 34.257 34.257 30 0.62 m/h 0 %
05:00:00 few clouds 32.672 32.672 32.672 33 0.43 m/h 0 %

Famous Cities (61)